createdAt,value
2017-09-26T02:27:47.182Z,40.08
2017-09-26T02:30:14.696Z,37.95
2017-09-26T02:32:42.279Z,42.97
2017-09-26T02:35:09.804Z,35.78
2017-09-26T02:37:37.313Z,37.50
2017-09-26T02:40:04.827Z,35.88
2017-09-26T02:42:32.339Z,41.55
2017-09-26T02:44:59.869Z,42.03
2017-09-26T02:47:28.158Z,41.42
2017-09-26T02:49:55.661Z,39.40
2017-09-26T02:52:23.166Z,38.78
2017-09-26T02:54:50.694Z,42.33
2017-09-26T02:57:18.197Z,44.15
2017-09-26T02:59:45.725Z,44.20
2017-09-26T03:02:13.233Z,42.92
2017-09-26T03:04:40.892Z,43.13
2017-09-26T03:07:08.415Z,45.38
2017-09-26T03:09:36.700Z,48.42
2017-09-26T03:12:04.968Z,47.00
2017-09-26T03:14:33.244Z,45.90
2017-09-26T03:17:01.528Z,44.70
2017-09-26T03:19:29.800Z,46.53
2017-09-26T03:21:58.071Z,44.80
2017-09-26T03:24:25.573Z,47.67
2017-09-26T03:26:53.087Z,48.15
2017-09-26T03:29:20.600Z,47.65
2017-09-26T03:31:48.145Z,43.70
2017-09-26T03:34:15.638Z,44.17
2017-09-26T03:36:43.154Z,54.78
2017-09-26T03:39:10.672Z,50.30
2017-09-26T03:41:38.170Z,48.17
2017-09-26T03:44:05.665Z,46.78
2017-09-26T03:46:33.182Z,43.40
2017-09-26T03:49:00.690Z,48.17
2017-09-26T03:51:29.033Z,49.53
2017-09-26T03:53:56.540Z,50.45
2017-09-26T03:56:24.052Z,51.30
2017-09-26T03:58:51.583Z,59.45
2017-09-26T04:01:20.160Z,48.85
2017-09-26T04:03:47.684Z,48.35
2017-09-26T04:06:15.192Z,46.55
2017-09-26T04:08:43.478Z,49.17
2017-09-26T04:11:11.773Z,49.22
2017-09-26T04:13:39.293Z,53.03
2017-09-26T04:16:06.801Z,52.97
2017-09-26T04:18:34.306Z,51.72
2017-09-26T04:21:01.804Z,57.58
2017-09-26T04:23:29.332Z,56.17
2017-09-26T04:25:56.847Z,55.92
2017-09-26T04:28:24.348Z,55.80
2017-09-26T04:30:51.845Z,47.70
2017-09-26T04:33:19.401Z,48.22
2017-09-26T04:35:46.924Z,49.13
2017-09-26T04:38:14.440Z,51.85
2017-09-26T04:40:41.955Z,47.97
2017-09-26T04:43:09.458Z,50.22
2017-09-26T04:45:36.976Z,48.15
2017-09-26T04:48:05.258Z,52.80
2017-09-26T04:50:33.540Z,63.40
2017-09-26T04:53:01.033Z,49.25
2017-09-26T04:55:28.538Z,50.63
2017-09-26T04:57:56.818Z,46.15
2017-09-26T05:00:24.326Z,49.35
2017-09-26T05:02:51.835Z,46.00
2017-09-26T05:05:20.122Z,47.22
2017-09-26T05:07:47.677Z,52.30
2017-09-26T05:10:15.188Z,47.88
2017-09-26T05:12:42.688Z,46.47
2017-09-26T05:15:10.971Z,53.40
2017-09-26T05:17:39.232Z,48.42
2017-09-26T05:20:06.752Z,52.72
2017-09-26T05:22:34.284Z,45.45
2017-09-26T05:25:01.795Z,46.45
2017-09-26T05:27:29.315Z,49.35
2017-09-26T05:29:56.841Z,47.45
2017-09-26T05:32:24.400Z,47.75
2017-09-26T05:34:52.676Z,46.45
2017-09-26T05:37:20.942Z,53.33
2017-09-26T05:39:48.576Z,45.95
2017-09-26T05:42:16.088Z,57.25
2017-09-26T05:44:44.371Z,47.72
2017-09-26T05:47:11.912Z,46.67
2017-09-26T05:49:40.205Z,49.03
2017-09-26T05:52:07.727Z,47.90
2017-09-26T05:54:35.240Z,50.78
2017-09-26T05:57:02.838Z,50.40
2017-09-26T05:59:30.360Z,45.58
2017-09-26T06:01:57.868Z,50.67
2017-09-26T06:04:25.477Z,45.38
2017-09-26T06:06:52.997Z,45.58
2017-09-26T06:09:20.543Z,47.83
2017-09-26T06:11:48.072Z,51.33
2017-09-26T06:14:15.602Z,46.55
2017-09-26T06:16:43.191Z,53.42
2017-09-26T06:19:10.705Z,46.20
2017-09-26T06:21:38.266Z,47.50
2017-09-26T06:24:06.536Z,55.97
2017-09-26T06:26:34.041Z,55.33
2017-09-26T06:29:01.567Z,54.28
2017-09-26T06:31:29.124Z,47.60
2017-09-26T06:33:57.399Z,45.05
2017-09-26T06:36:25.704Z,47.42
2017-09-26T06:38:53.210Z,47.75
2017-09-26T06:41:20.728Z,46.53
2017-09-26T06:43:48.233Z,46.85
2017-09-26T06:46:15.768Z,49.05
2017-09-26T06:48:43.285Z,45.97
2017-09-26T06:51:10.814Z,47.60
2017-09-26T06:53:38.308Z,43.87
2017-09-26T06:56:05.815Z,46.45
2017-09-26T06:58:33.346Z,47.17
2017-09-26T07:01:00.861Z,40.88
2017-09-26T07:03:28.480Z,40.08
2017-09-26T07:05:55.984Z,50.00
2017-09-26T07:08:24.256Z,40.08
2017-09-26T07:10:51.794Z,44.63
2017-09-26T07:13:19.295Z,42.88
2017-09-26T07:15:46.799Z,44.15
2017-09-26T07:18:14.296Z,42.17
2017-09-26T07:20:42.584Z,49.72
2017-09-26T07:23:10.966Z,43.30
2017-09-26T07:25:38.485Z,44.42
2017-09-26T07:28:06.015Z,46.67
2017-09-26T07:30:33.544Z,37.78
2017-09-26T07:33:01.072Z,42.08
2017-09-26T07:35:28.616Z,46.05
2017-09-26T07:37:56.141Z,43.35
2017-09-26T07:40:23.672Z,37.65
2017-09-26T07:42:51.952Z,42.65
2017-09-26T07:45:20.220Z,38.95
2017-09-26T07:47:47.719Z,39.47
2017-09-26T07:50:15.233Z,39.88
2017-09-26T07:52:42.759Z,41.47
2017-09-26T07:55:10.317Z,44.38
2017-09-26T07:57:37.843Z,42.22
2017-09-26T08:00:05.361Z,40.55
2017-09-26T08:02:33.031Z,35.92
2017-09-26T08:05:00.701Z,38.10
2017-09-26T08:07:28.404Z,35.38
2017-09-26T08:09:56.109Z,34.97
2017-09-26T08:12:23.617Z,39.75
2017-09-26T08:14:51.168Z,38.53
2017-09-26T08:17:19.436Z,39.25
2017-09-26T08:19:47.720Z,39.60
2017-09-26T08:22:16.024Z,35.45
2017-09-26T08:24:43.549Z,35.83
2017-09-26T08:27:11.055Z,41.83
2017-09-26T08:29:38.568Z,32.03
2017-09-26T08:32:06.849Z,35.22
2017-09-26T08:34:35.116Z,31.85
2017-09-26T08:37:03.385Z,37.80
2017-09-26T08:39:30.890Z,40.75
2017-09-26T08:41:58.417Z,30.95
2017-09-26T08:44:25.964Z,34.58
2017-09-26T08:46:54.246Z,33.47
2017-09-26T08:49:22.568Z,31.40
2017-09-26T08:51:50.122Z,33.25
2017-09-26T08:54:17.629Z,35.03
2017-09-26T08:56:45.188Z,36.00
2017-09-26T08:59:12.682Z,36.45
2017-09-26T09:01:40.218Z,36.05
2017-09-26T09:04:07.723Z,40.78
2017-09-26T09:06:35.234Z,33.53
2017-09-26T09:09:02.746Z,39.85
2017-09-26T09:11:30.602Z,39.13
2017-09-26T09:13:58.123Z,49.55
2017-09-26T09:16:26.472Z,44.15
2017-09-26T09:18:53.984Z,35.60
2017-09-26T09:21:21.496Z,37.85
2017-09-26T09:23:49.015Z,39.20
2017-09-26T09:26:16.516Z,37.55
2017-09-26T09:28:44.052Z,39.17
2017-09-26T09:31:11.571Z,33.58
2017-09-26T09:33:39.903Z,32.83
2017-09-26T09:36:07.414Z,35.08
2017-09-26T09:38:35.033Z,36.25
2017-09-26T09:41:02.536Z,34.80
2017-09-26T09:43:30.057Z,34.25
2017-09-26T09:45:57.608Z,35.90
2017-09-26T09:48:25.104Z,35.47
2017-09-26T09:50:53.370Z,39.35
2017-09-26T09:53:20.879Z,38.10
2017-09-26T09:55:48.410Z,38.25
2017-09-26T09:58:15.935Z,39.97
2017-09-26T10:00:43.453Z,44.58
2017-09-26T10:03:10.975Z,41.33
2017-09-26T10:05:39.252Z,43.55
2017-09-26T10:08:07.577Z,37.97
2017-09-26T10:10:35.091Z,34.85
2017-09-26T10:13:02.746Z,32.72
2017-09-26T10:15:30.280Z,34.50
2017-09-26T10:17:57.859Z,34.35
2017-09-26T10:20:25.384Z,30.52
2017-09-26T10:22:52.890Z,31.35
2017-09-26T10:25:21.168Z,34.95
2017-09-26T10:27:49.449Z,32.60
2017-09-26T10:30:17.034Z,31.98
2017-09-26T10:32:44.564Z,32.78
2017-09-26T10:35:12.855Z,30.05
2017-09-26T10:37:41.720Z,28.90
2017-09-26T10:40:09.990Z,29.20
2017-09-26T10:42:37.527Z,30.58
2017-09-26T10:45:05.161Z,29.12
2017-09-26T10:47:32.706Z,29.25
2017-09-26T10:50:00.221Z,27.52
2017-09-26T10:52:27.724Z,26.52
2017-09-26T10:54:55.249Z,28.65
2017-09-26T10:57:22.736Z,25.50
2017-09-26T10:59:50.280Z,25.62
2017-09-26T11:02:18.555Z,29.33
2017-09-26T11:04:46.873Z,28.95
2017-09-26T11:07:14.389Z,24.55
2017-09-26T11:09:41.905Z,26.40
2017-09-26T11:12:09.483Z,27.85
2017-09-26T11:14:37.020Z,26.35
2017-09-26T11:17:04.526Z,27.05
2017-09-26T11:19:32.042Z,24.37
2017-09-26T11:21:59.588Z,25.90
2017-09-26T11:24:27.100Z,25.15
2017-09-26T11:26:54.618Z,26.08
2017-09-26T11:29:22.132Z,33.72
2017-09-26T11:31:49.634Z,26.73
2017-09-26T11:34:17.163Z,27.70
2017-09-26T11:36:44.802Z,23.92
2017-09-26T11:39:13.076Z,24.23
2017-09-26T11:41:40.610Z,26.80
2017-09-26T11:44:08.263Z,27.73
2017-09-26T11:46:35.791Z,25.17
2017-09-26T11:49:03.287Z,26.55
2017-09-26T11:51:30.797Z,23.58
2017-09-26T11:53:59.097Z,25.92
2017-09-26T11:56:26.612Z,26.08
2017-09-26T11:58:54.118Z,28.10
2017-09-26T12:01:21.649Z,24.58
2017-09-26T12:03:49.921Z,29.73
2017-09-26T12:06:18.219Z,27.65
2017-09-26T12:08:52.210Z,31.37
2017-09-26T12:11:20.527Z,31.92
2017-09-26T12:13:53.633Z,28.15
2017-09-26T12:16:21.214Z,31.17
2017-09-26T12:18:48.748Z,27.25
2017-09-26T12:21:16.246Z,31.08
2017-09-26T12:23:44.527Z,27.92
2017-09-26T12:26:13.142Z,28.90
2017-09-26T12:28:40.658Z,29.50
2017-09-26T12:31:08.184Z,28.12
2017-09-26T12:33:35.703Z,26.75
2017-09-26T12:36:03.201Z,28.55
2017-09-26T12:38:30.698Z,29.08
2017-09-26T12:40:58.304Z,30.35
2017-09-26T12:43:25.968Z,28.70
2017-09-26T12:45:53.513Z,28.60
2017-09-26T12:48:21.046Z,29.48
2017-09-26T12:50:48.564Z,30.37
2017-09-26T12:53:16.193Z,27.80
2017-09-26T12:55:43.712Z,27.73
2017-09-26T12:58:11.282Z,30.37
2017-09-26T13:00:38.794Z,32.28
2017-09-26T13:03:06.290Z,27.73
2017-09-26T13:05:33.907Z,26.30
2017-09-26T13:08:01.429Z,28.40
2017-09-26T13:10:29.690Z,27.00
2017-09-26T13:12:57.415Z,27.60
2017-09-26T13:15:24.929Z,31.45
2017-09-26T13:17:52.439Z,31.92
2017-09-26T13:20:20.142Z,32.05
2017-09-26T13:22:47.646Z,30.25
2017-09-26T13:25:15.184Z,37.15
2017-09-26T13:27:42.729Z,29.83
2017-09-26T13:30:11.041Z,26.87
2017-09-26T13:32:38.549Z,28.77
2017-09-26T13:35:06.060Z,33.67
2017-09-26T13:37:33.579Z,31.60
2017-09-26T13:40:01.088Z,33.63
2017-09-26T13:42:28.629Z,33.75
2017-09-26T13:44:56.138Z,34.03
2017-09-26T13:47:23.653Z,35.55
2017-09-26T13:49:51.155Z,31.15
2017-09-26T13:52:19.418Z,32.83
2017-09-26T13:54:46.950Z,30.88
2017-09-26T13:57:14.475Z,33.50
2017-09-26T13:59:42.785Z,34.60
2017-09-26T14:02:10.339Z,33.83
2017-09-26T14:04:37.870Z,30.90
2017-09-26T14:07:06.191Z,35.50
2017-09-26T14:09:33.697Z,30.60
2017-09-26T14:12:01.234Z,37.03
2017-09-26T14:14:28.790Z,35.03
2017-09-26T14:16:56.345Z,32.63
2017-09-26T14:19:23.848Z,31.58
2017-09-26T14:21:52.123Z,36.47
2017-09-26T14:24:20.406Z,31.83
2017-09-26T14:26:48.716Z,32.38
2017-09-26T14:29:16.317Z,33.45
2017-09-26T14:31:43.844Z,28.98
2017-09-26T14:34:11.361Z,27.40
2017-09-26T14:36:39.644Z,30.73
2017-09-26T14:39:07.157Z,26.48
2017-09-26T14:41:34.666Z,27.20
2017-09-26T14:44:02.928Z,30.02
2017-09-26T14:46:31.209Z,26.45
2017-09-26T14:48:59.476Z,30.20
2017-09-26T14:51:26.995Z,28.92
2017-09-26T14:53:54.507Z,26.98
2017-09-26T14:56:22.017Z,28.45
2017-09-26T14:58:49.522Z,31.17
2017-09-26T15:01:17.834Z,32.30
2017-09-26T15:03:45.377Z,30.75
2017-09-26T15:06:12.916Z,30.85
2017-09-26T15:08:41.191Z,33.80
2017-09-26T15:11:09.509Z,32.95
2017-09-26T15:13:37.027Z,32.35
2017-09-26T15:16:04.549Z,35.28
2017-09-26T15:18:32.108Z,34.55
2017-09-26T15:20:59.646Z,34.50
2017-09-26T15:23:27.158Z,32.75
2017-09-26T15:25:54.662Z,35.88
2017-09-26T15:28:22.174Z,31.23
2017-09-26T15:30:49.720Z,33.88
2017-09-26T15:33:17.232Z,35.47
2017-09-26T15:35:44.744Z,37.85
2017-09-26T15:38:12.445Z,35.60
2017-09-26T15:40:39.965Z,30.73
2017-09-26T15:43:07.468Z,34.70
2017-09-26T15:45:35.008Z,36.72
2017-09-26T15:48:03.284Z,33.75
2017-09-26T15:50:30.840Z,34.28
2017-09-26T15:52:59.135Z,37.80
2017-09-26T15:55:27.414Z,37.35
2017-09-26T15:57:54.942Z,34.47
2017-09-26T16:00:22.442Z,31.20
2017-09-26T16:02:50.088Z,34.47
2017-09-26T16:05:17.619Z,33.58
2017-09-26T16:07:45.130Z,30.75
2017-09-26T16:10:12.671Z,35.85
2017-09-26T16:12:40.186Z,35.25
2017-09-26T16:15:07.710Z,34.58
2017-09-26T16:17:35.231Z,31.30
2017-09-26T16:20:02.743Z,31.10
2017-09-26T16:22:30.255Z,33.80
2017-09-26T16:24:58.548Z,36.63
2017-09-26T16:27:26.052Z,32.90
2017-09-26T16:29:53.574Z,48.67
2017-09-26T16:32:21.092Z,32.33
2017-09-26T16:34:48.936Z,34.20
2017-09-26T16:37:16.526Z,34.70
2017-09-26T16:39:44.037Z,33.47
2017-09-26T16:42:11.559Z,34.22
2017-09-26T16:44:39.962Z,31.73
2017-09-26T16:47:07.507Z,33.92
2017-09-26T16:49:35.836Z,33.03
2017-09-26T16:52:03.368Z,32.65
2017-09-26T16:54:31.228Z,45.08
2017-09-26T16:56:58.756Z,35.40
2017-09-26T16:59:27.063Z,33.10
2017-09-26T17:01:54.593Z,33.80
2017-09-26T17:04:23.113Z,34.13
2017-09-26T17:06:50.640Z,35.03
2017-09-26T17:09:18.934Z,34.30
2017-09-26T17:11:46.467Z,43.38
2017-09-26T17:14:13.982Z,40.30
2017-09-26T17:16:41.492Z,36.13
2017-09-26T17:19:09.811Z,37.88
2017-09-26T17:21:38.830Z,35.42
2017-09-26T17:24:07.741Z,33.08
2017-09-26T17:26:35.266Z,35.88
2017-09-26T17:29:03.230Z,34.88
2017-09-26T17:31:30.762Z,30.98
2017-09-26T17:33:59.052Z,40.80
2017-09-26T17:36:26.592Z,34.10
2017-09-26T17:38:54.109Z,36.80
2017-09-26T17:41:21.625Z,40.83
2017-09-26T17:43:49.134Z,39.20
2017-09-26T17:46:16.638Z,41.00
2017-09-26T17:48:44.161Z,38.13
2017-09-26T17:51:11.785Z,37.03
2017-09-26T17:53:39.301Z,37.00
2017-09-26T17:56:07.568Z,39.83
2017-09-26T17:58:35.087Z,34.55
2017-09-26T18:01:02.624Z,38.15
2017-09-26T18:03:30.140Z,38.35
2017-09-26T18:05:57.765Z,38.97
2017-09-26T18:08:25.305Z,46.30
2017-09-26T18:10:52.933Z,45.38
2017-09-26T18:13:21.227Z,42.72
2017-09-26T18:15:49.516Z,45.67
2017-09-26T18:18:17.082Z,53.63
2017-09-26T18:20:44.607Z,44.05
2017-09-26T18:23:12.926Z,50.22
2017-09-26T18:25:42.313Z,44.28
2017-09-26T18:28:09.828Z,50.05
2017-09-26T18:30:37.348Z,54.75
2017-09-26T18:33:04.859Z,54.85
2017-09-26T18:35:32.416Z,44.00
2017-09-26T18:38:00.727Z,46.28
2017-09-26T18:40:28.247Z,45.05
2017-09-26T18:42:55.768Z,43.65
2017-09-26T18:45:23.322Z,45.53
2017-09-26T18:47:50.849Z,43.53
2017-09-26T18:50:18.377Z,42.38
2017-09-26T18:52:47.718Z,45.70
2017-09-26T18:55:16.058Z,44.17
2017-09-26T18:57:43.894Z,40.75
2017-09-26T19:00:11.429Z,47.20
2017-09-26T19:02:39.005Z,40.55
2017-09-26T19:05:06.550Z,42.62
2017-09-26T19:07:34.094Z,44.03
2017-09-26T19:10:02.549Z,46.03
2017-09-26T19:12:30.556Z,52.05
2017-09-26T19:14:58.835Z,42.03
2017-09-26T19:17:26.352Z,49.13
2017-09-26T19:19:53.966Z,48.25
2017-09-26T19:22:21.490Z,49.38
2017-09-26T19:24:49.015Z,48.15
2017-09-26T19:27:16.533Z,42.40
2017-09-26T19:29:44.056Z,43.03
2017-09-26T19:32:11.575Z,43.40
2017-09-26T19:34:39.085Z,44.28
2017-09-26T19:37:06.609Z,42.53
2017-09-26T19:39:34.168Z,54.83
2017-09-26T19:42:01.871Z,49.08
2017-09-26T19:44:29.389Z,49.72
2017-09-26T19:46:56.934Z,45.65
2017-09-26T19:49:24.559Z,50.33
2017-09-26T19:51:52.867Z,68.22
2017-09-26T19:54:20.423Z,51.97
2017-09-26T19:56:47.980Z,59.05
2017-09-26T19:59:15.508Z,50.40
2017-09-26T20:01:43.095Z,42.47
2017-09-26T20:04:10.790Z,53.87
2017-09-26T20:06:38.342Z,50.20
2017-09-26T20:09:05.969Z,49.35
2017-09-26T20:11:34.279Z,49.85
2017-09-26T20:14:02.067Z,46.75
2017-09-26T20:16:29.710Z,50.22
2017-09-26T20:18:57.311Z,47.97
2017-09-26T20:21:26.701Z,48.35
2017-09-26T20:23:54.288Z,46.92
2017-09-26T20:26:21.921Z,49.28
2017-09-26T20:28:49.612Z,49.78
2017-09-26T20:31:17.140Z,47.42
2017-09-26T20:33:44.985Z,52.30
2017-09-26T20:36:12.503Z,46.42
2017-09-26T20:38:40.798Z,51.85
2017-09-26T20:41:09.098Z,50.35
2017-09-26T20:43:36.641Z,52.62
2017-09-26T20:46:04.187Z,48.00
2017-09-26T20:48:31.738Z,47.72
2017-09-26T20:50:59.301Z,52.15
2017-09-26T20:53:26.965Z,49.47
2017-09-26T20:55:54.517Z,46.90
2017-09-26T20:58:22.120Z,55.88
2017-09-26T21:00:49.689Z,54.80
2017-09-26T21:03:17.281Z,49.78
2017-09-26T21:05:44.825Z,52.53
2017-09-26T21:08:12.415Z,53.00
2017-09-26T21:10:40.809Z,53.50
2017-09-26T21:13:09.118Z,56.47
2017-09-26T21:15:36.768Z,55.08
2017-09-26T21:18:04.288Z,47.85
2017-09-26T21:20:31.830Z,58.05
2017-09-26T21:22:59.727Z,55.10
2017-09-26T21:25:27.281Z,53.00
2017-09-26T21:27:54.891Z,56.90
2017-09-26T21:30:22.561Z,56.42
2017-09-26T21:32:50.164Z,52.85
2017-09-26T21:35:17.713Z,53.55
2017-09-26T21:37:45.265Z,50.05
2017-09-26T21:40:13.483Z,54.25
2017-09-26T21:42:41.868Z,59.65
2017-09-26T21:45:09.380Z,52.72
2017-09-26T21:47:36.953Z,51.80
2017-09-26T21:50:04.485Z,53.83
2017-09-26T21:52:32.090Z,59.17
2017-09-26T21:54:59.652Z,50.63
2017-09-26T21:57:27.976Z,55.72
2017-09-26T21:59:56.779Z,56.10
2017-09-26T22:02:24.393Z,49.67
2017-09-26T22:04:51.989Z,51.72
2017-09-26T22:07:19.526Z,60.35
2017-09-26T22:09:47.038Z,54.72
2017-09-26T22:12:14.548Z,53.58
2017-09-26T22:14:42.144Z,62.80
2017-09-26T22:17:09.707Z,65.20
2017-09-26T22:19:37.240Z,52.85
2017-09-26T22:22:04.810Z,54.17
2017-09-26T22:24:32.765Z,53.67
2017-09-26T22:27:00.328Z,58.42
2017-09-26T22:29:27.867Z,54.88
2017-09-26T22:31:55.374Z,59.80
2017-09-26T22:34:22.901Z,63.55
2017-09-26T22:36:50.439Z,54.78
2017-09-26T22:39:18.729Z,65.95
2017-09-26T22:41:46.246Z,58.70
2017-09-26T22:44:14.762Z,67.50
2017-09-26T22:46:43.044Z,53.40
2017-09-26T22:49:10.548Z,64.95
2017-09-26T22:51:38.081Z,58.70
2017-09-26T22:54:05.742Z,58.85
2017-09-26T22:56:33.273Z,60.47
2017-09-26T22:59:01.551Z,59.85
2017-09-26T23:01:29.823Z,66.53
2017-09-26T23:03:58.105Z,55.65
2017-09-26T23:06:26.382Z,56.15
2017-09-26T23:08:54.691Z,54.55
2017-09-26T23:11:22.191Z,58.20
2017-09-26T23:13:49.755Z,58.30
2017-09-26T23:16:17.280Z,55.20
2017-09-26T23:18:44.859Z,58.70
2017-09-26T23:21:12.368Z,57.20
2017-09-26T23:23:39.877Z,57.08
2017-09-26T23:26:07.410Z,52.60
2017-09-26T23:28:34.988Z,57.83
2017-09-26T23:31:02.514Z,53.42
2017-09-26T23:33:30.031Z,52.70
2017-09-26T23:35:57.595Z,54.92
2017-09-26T23:38:25.108Z,59.47
2017-09-26T23:40:52.644Z,54.20
2017-09-26T23:43:20.148Z,50.28
2017-09-26T23:45:47.644Z,56.00
2017-09-26T23:48:15.154Z,53.35
2017-09-26T23:50:42.681Z,56.37
2017-09-26T23:53:10.195Z,56.13
2017-09-26T23:55:37.709Z,57.35
2017-09-26T23:58:05.217Z,58.13
